EGPB - Sumburgh Cape
Distance from station: E 5mi, 14km
Updated: 01/20/2018 9:50pm
Clear
Clear
 Wind from N
Wind: N 6 mph , 9 km/h
Temperature: 34°F , 1°C
Wind Chill: 29°F , -2°C
Dew Point: 30°F , -1°C
Humidity: 87%
Barometer: 29.8 inHg , 1009 hPa
Clouds: Clear
Visibility: 6 miles , 10 km
2018/01/21 05:50 EGPB 210550Z AUTO 35005KT 9999 NCD 01/M01 Q1009